createdAt,value
2018-01-30T00:02:26.826Z,2.70
2018-01-30T00:04:54.276Z,2.80
2018-01-30T00:07:21.737Z,2.47
2018-01-30T00:09:49.197Z,2.40
2018-01-30T00:12:16.675Z,2.70
2018-01-30T00:14:44.122Z,2.63
2018-01-30T00:17:11.600Z,2.70
2018-01-30T00:19:39.079Z,2.23
2018-01-30T00:22:06.533Z,2.40
2018-01-30T00:24:33.995Z,2.20
2018-01-30T00:27:01.447Z,2.20
2018-01-30T00:29:28.913Z,2.67
2018-01-30T00:31:56.375Z,2.27
2018-01-30T00:34:23.835Z,2.53
2018-01-30T00:36:51.303Z,2.90
2018-01-30T00:39:18.771Z,2.57
2018-01-30T00:41:46.225Z,2.70
2018-01-30T00:44:13.685Z,2.70
2018-01-30T00:46:41.137Z,2.60
2018-01-30T00:49:08.597Z,2.90
2018-01-30T00:51:36.061Z,2.20
2018-01-30T00:54:03.520Z,2.20
2018-01-30T00:56:30.986Z,2.07
2018-01-30T00:58:58.468Z,2.40
2018-01-30T01:01:25.928Z,2.00
2018-01-30T01:03:53.391Z,1.70
2018-01-30T01:06:20.849Z,2.17
2018-01-30T01:08:48.303Z,2.00
2018-01-30T01:11:15.765Z,1.90
2018-01-30T01:13:43.238Z,2.10
2018-01-30T01:16:10.695Z,1.90
2018-01-30T01:18:38.162Z,2.30
2018-01-30T01:21:05.604Z,1.90
2018-01-30T01:23:33.081Z,1.93
2018-01-30T01:26:00.535Z,1.90
2018-01-30T01:28:27.991Z,2.00
2018-01-30T01:30:55.449Z,2.00
2018-01-30T01:33:22.900Z,1.70
2018-01-30T01:35:50.375Z,2.00
2018-01-30T01:38:17.831Z,2.10
2018-01-30T01:40:45.302Z,2.03
2018-01-30T01:43:12.777Z,1.80
2018-01-30T01:45:40.235Z,1.80
2018-01-30T01:48:07.698Z,2.00
2018-01-30T01:50:35.174Z,2.07
2018-01-30T01:53:02.626Z,1.70
2018-01-30T01:55:30.096Z,1.90
2018-01-30T01:57:57.551Z,1.90
2018-01-30T02:00:25.012Z,2.17
2018-01-30T02:02:52.476Z,1.90
2018-01-30T02:05:19.943Z,1.90
2018-01-30T02:07:47.387Z,2.23
2018-01-30T02:10:14.869Z,1.90
2018-01-30T02:12:42.321Z,1.90
2018-01-30T02:15:09.787Z,2.20
2018-01-30T02:17:37.247Z,2.37
2018-01-30T02:20:04.704Z,2.30
2018-01-30T02:22:32.181Z,2.20
2018-01-30T02:24:59.650Z,2.47
2018-01-30T02:27:27.107Z,2.47
2018-01-30T02:29:54.574Z,2.10
2018-01-30T02:32:22.037Z,2.60
2018-01-30T02:34:49.496Z,2.23
2018-01-30T02:37:16.957Z,2.50
2018-01-30T02:39:45.334Z,2.00
2018-01-30T02:42:12.795Z,2.00
2018-01-30T02:44:40.256Z,2.40
2018-01-30T02:47:07.729Z,2.33
2018-01-30T02:49:35.199Z,2.30
2018-01-30T02:52:02.662Z,2.47
2018-01-30T02:54:30.109Z,2.60
2018-01-30T02:56:57.589Z,2.20
2018-01-30T02:59:25.076Z,2.17
2018-01-30T03:01:53.302Z,2.40
2018-01-30T03:04:20.766Z,2.40
2018-01-30T03:06:48.231Z,2.37
2018-01-30T03:09:15.688Z,2.53
2018-01-30T03:11:43.156Z,2.20
2018-01-30T03:14:10.611Z,2.60
2018-01-30T03:16:38.073Z,2.40
2018-01-30T03:19:05.547Z,2.33
2018-01-30T03:21:33.031Z,2.20
2018-01-30T03:24:00.481Z,2.77
2018-01-30T03:26:27.941Z,2.30
2018-01-30T03:28:55.407Z,3.07
2018-01-30T03:31:22.878Z,2.60
2018-01-30T03:33:50.343Z,2.53
2018-01-30T03:36:17.802Z,2.50
2018-01-30T03:38:45.253Z,2.40
2018-01-30T03:41:12.712Z,2.50
2018-01-30T03:43:40.210Z,2.90
2018-01-30T03:46:08.467Z,2.63
2018-01-30T03:48:35.916Z,2.47
2018-01-30T03:51:03.373Z,2.30
2018-01-30T03:53:30.834Z,2.43
2018-01-30T03:55:58.297Z,2.53
2018-01-30T03:58:25.767Z,2.30
2018-01-30T04:00:53.210Z,2.30
2018-01-30T04:03:20.674Z,2.30
2018-01-30T04:05:48.120Z,2.47
2018-01-30T04:08:15.597Z,2.20
2018-01-30T04:10:43.048Z,2.40
2018-01-30T04:13:10.513Z,2.20
2018-01-30T04:15:37.965Z,1.90
2018-01-30T04:18:05.434Z,2.10
2018-01-30T04:20:32.901Z,2.17
2018-01-30T04:23:00.377Z,2.07
2018-01-30T04:25:27.826Z,2.03
2018-01-30T04:27:55.301Z,2.40
2018-01-30T04:30:23.502Z,2.10
2018-01-30T04:32:50.969Z,2.10
2018-01-30T04:35:18.419Z,2.03
2018-01-30T04:37:45.892Z,2.13
2018-01-30T04:40:13.348Z,1.80
2018-01-30T04:42:40.818Z,2.10
2018-01-30T04:45:08.277Z,2.40
2018-01-30T04:47:35.743Z,1.93
2018-01-30T04:50:03.202Z,2.30
2018-01-30T04:52:30.683Z,2.20
2018-01-30T04:54:58.898Z,2.37
2018-01-30T04:57:26.360Z,2.60
2018-01-30T04:59:53.824Z,2.20
2018-01-30T05:02:21.307Z,2.40
2018-01-30T05:04:48.760Z,2.27
2018-01-30T05:07:16.245Z,2.10
2018-01-30T05:09:43.694Z,2.30
2018-01-30T05:12:11.154Z,2.40
2018-01-30T05:14:38.635Z,2.63
2018-01-30T05:17:06.115Z,2.40
2018-01-30T05:19:33.589Z,2.80
2018-01-30T05:22:01.040Z,2.27
2018-01-30T05:24:28.521Z,3.10
2018-01-30T05:26:56.743Z,3.23
2018-01-30T05:29:24.208Z,4.00
2018-01-30T05:31:51.669Z,3.90
2018-01-30T05:34:19.130Z,3.40
2018-01-30T05:36:47.355Z,4.00
2018-01-30T05:39:15.596Z,3.60
2018-01-30T05:41:43.054Z,3.40
2018-01-30T05:44:10.516Z,3.43
2018-01-30T05:46:39.646Z,2.80
2018-01-30T05:49:07.105Z,3.10
2018-01-30T05:51:34.568Z,2.93
2018-01-30T05:54:02.029Z,3.43
2018-01-30T05:56:29.488Z,3.27
2018-01-30T05:58:56.961Z,3.10
2018-01-30T06:01:24.420Z,3.20
2018-01-30T06:03:51.888Z,3.23
2018-01-30T06:06:19.351Z,3.10
2018-01-30T06:08:46.814Z,3.10
2018-01-30T06:11:14.262Z,2.90
2018-01-30T06:13:41.727Z,3.07
2018-01-30T06:16:09.182Z,3.00
2018-01-30T06:18:36.668Z,2.70
2018-01-30T06:21:04.127Z,3.07
2018-01-30T06:23:31.588Z,3.63
2018-01-30T06:26:02.830Z,3.37
2018-01-30T06:28:30.285Z,3.20
2018-01-30T06:30:57.774Z,2.93
2018-01-30T06:33:25.998Z,3.40
2018-01-30T06:35:53.460Z,3.27
2018-01-30T06:38:20.931Z,2.90
2018-01-30T06:40:48.398Z,2.87
2018-01-30T06:43:15.857Z,3.10
2018-01-30T06:45:43.331Z,2.67
2018-01-30T06:48:10.792Z,3.00
2018-01-30T06:50:38.261Z,2.73
2018-01-30T06:53:05.720Z,2.83
2018-01-30T06:55:33.181Z,3.20
2018-01-30T06:58:00.647Z,3.20
2018-01-30T07:00:28.106Z,3.50
2018-01-30T07:02:55.571Z,4.00
2018-01-30T07:05:23.039Z,4.57
2018-01-30T07:07:50.492Z,5.20
2018-01-30T07:10:17.965Z,4.00
2018-01-30T07:12:45.421Z,5.70
2018-01-30T07:15:12.883Z,4.00
2018-01-30T07:17:40.349Z,3.90
2018-01-30T07:20:07.806Z,3.87
2018-01-30T07:22:35.287Z,4.40
2018-01-30T07:25:02.759Z,4.60
2018-01-30T07:27:30.977Z,4.73
2018-01-30T07:29:58.441Z,4.70
2018-01-30T07:32:25.913Z,4.43
2018-01-30T07:34:53.358Z,4.10
2018-01-30T07:37:21.610Z,4.03
2018-01-30T07:39:49.826Z,4.20
2018-01-30T07:42:17.286Z,3.80
2018-01-30T07:44:44.747Z,3.97
2018-01-30T07:47:12.222Z,4.30
2018-01-30T07:49:39.690Z,4.17
2018-01-30T07:52:07.156Z,6.67
2018-01-30T07:54:34.616Z,4.77
2018-01-30T07:57:02.101Z,4.50
2018-01-30T07:59:29.560Z,7.57
2018-01-30T08:01:57.027Z,7.53
2018-01-30T08:04:24.498Z,4.03
2018-01-30T08:06:51.963Z,3.77
2018-01-30T08:09:19.429Z,3.83
2018-01-30T08:11:46.900Z,4.03
2018-01-30T08:14:15.162Z,5.27
2018-01-30T08:16:43.459Z,9.83
2018-01-30T08:19:10.921Z,10.50
2018-01-30T08:21:38.382Z,7.80
2018-01-30T08:24:06.603Z,5.73
2018-01-30T08:26:34.075Z,4.90
2018-01-30T08:29:01.542Z,4.80
2018-01-30T08:31:28.997Z,4.40
2018-01-30T08:33:56.462Z,5.53
2018-01-30T08:36:23.928Z,5.43
2018-01-30T08:38:51.406Z,4.80
2018-01-30T08:41:18.892Z,4.87
2018-01-30T08:43:46.341Z,4.60
2018-01-30T08:46:13.807Z,4.93
2018-01-30T08:48:41.292Z,4.73
2018-01-30T08:51:09.513Z,4.73
2018-01-30T08:53:36.988Z,4.70
2018-01-30T08:56:04.450Z,4.80
2018-01-30T08:58:31.912Z,5.17
2018-01-30T09:00:59.386Z,4.93
2018-01-30T09:03:26.880Z,4.97
2018-01-30T09:05:55.096Z,4.60
2018-01-30T09:08:23.340Z,4.70
2018-01-30T09:10:50.789Z,5.00
2018-01-30T09:13:18.258Z,4.77
2018-01-30T09:15:45.720Z,5.30
2018-01-30T09:18:13.180Z,5.37
2018-01-30T09:20:40.651Z,6.33
2018-01-30T09:23:08.137Z,5.50
2018-01-30T09:25:35.586Z,5.37
2018-01-30T09:28:03.821Z,4.63
2018-01-30T09:30:31.293Z,4.83
2018-01-30T09:32:58.766Z,5.53
2018-01-30T09:35:26.224Z,5.03
2018-01-30T09:37:53.692Z,5.33
2018-01-30T09:40:21.142Z,6.10
2018-01-30T09:42:48.606Z,5.10
2018-01-30T09:45:16.096Z,5.00
2018-01-30T09:47:44.327Z,4.57
2018-01-30T09:50:11.800Z,5.17
2018-01-30T09:52:39.257Z,5.47
2018-01-30T09:55:06.721Z,4.90
2018-01-30T09:57:34.180Z,5.40
2018-01-30T10:00:01.661Z,4.80
2018-01-30T10:02:29.156Z,4.67
2018-01-30T10:04:57.502Z,5.17
2018-01-30T10:07:24.958Z,4.90
2018-01-30T10:09:52.419Z,4.50
2018-01-30T10:12:19.884Z,4.80
2018-01-30T10:14:47.352Z,4.73
2018-01-30T10:17:14.820Z,4.90
2018-01-30T10:19:42.298Z,4.70
2018-01-30T10:22:09.756Z,5.10
2018-01-30T10:24:37.217Z,4.90
2018-01-30T10:27:04.679Z,4.70
2018-01-30T10:29:32.137Z,5.03
2018-01-30T10:31:59.626Z,5.00
2018-01-30T10:34:27.857Z,4.43
2018-01-30T10:36:55.324Z,4.93
2018-01-30T10:39:22.789Z,5.10
2018-01-30T10:41:50.270Z,4.93
2018-01-30T10:44:17.733Z,4.77
2018-01-30T10:46:45.192Z,4.70
2018-01-30T10:49:12.661Z,5.17
2018-01-30T10:51:40.122Z,4.83
2018-01-30T10:54:07.587Z,4.70
2018-01-30T10:56:35.046Z,4.73
2018-01-30T10:59:02.585Z,5.10
2018-01-30T11:01:30.060Z,5.73
2018-01-30T11:03:57.525Z,4.57
2018-01-30T11:06:24.985Z,5.13
2018-01-30T11:08:52.439Z,4.07
2018-01-30T11:11:19.904Z,3.87
2018-01-30T11:13:47.362Z,3.50
2018-01-30T11:16:14.827Z,3.80
2018-01-30T11:18:42.305Z,3.40
2018-01-30T11:21:09.772Z,3.70
2018-01-30T11:23:37.243Z,3.37
2018-01-30T11:26:04.710Z,3.20
2018-01-30T11:28:32.946Z,3.03
2018-01-30T11:31:00.421Z,3.47
2018-01-30T11:33:27.874Z,4.70
2018-01-30T11:35:55.337Z,5.13
2018-01-30T11:38:22.806Z,4.07
2018-01-30T11:40:50.262Z,3.30
2018-01-30T11:43:17.714Z,3.23
2018-01-30T11:45:45.187Z,2.80
2018-01-30T11:48:12.649Z,3.30
2018-01-30T11:50:40.124Z,3.30
2018-01-30T11:53:07.605Z,4.00
2018-01-30T11:55:35.076Z,3.80
2018-01-30T11:58:03.352Z,3.37
2018-01-30T12:00:30.782Z,3.10
2018-01-30T12:02:58.240Z,3.00
2018-01-30T12:05:25.711Z,3.13
2018-01-30T12:07:53.184Z,3.20
2018-01-30T12:10:20.641Z,3.23
2018-01-30T12:12:48.094Z,3.57
2018-01-30T12:15:15.569Z,3.40
2018-01-30T12:17:43.013Z,3.37
2018-01-30T12:20:10.493Z,3.07
2018-01-30T12:22:37.961Z,3.10
2018-01-30T12:25:05.426Z,3.20
2018-01-30T12:27:32.913Z,4.53
2018-01-30T12:30:01.147Z,4.77
2018-01-30T12:32:28.704Z,3.60
2018-01-30T12:34:56.149Z,3.50
2018-01-30T12:37:23.620Z,3.43
2018-01-30T12:39:51.400Z,3.10
2018-01-30T12:42:19.493Z,3.60
2018-01-30T12:44:46.964Z,3.20
2018-01-30T12:47:14.445Z,3.40
2018-01-30T12:49:41.900Z,3.33
2018-01-30T12:52:09.383Z,3.57
2018-01-30T12:54:37.605Z,3.20
2018-01-30T12:57:05.131Z,3.30
2018-01-30T12:59:33.352Z,3.50
2018-01-30T13:02:00.826Z,3.00
2018-01-30T13:04:28.290Z,3.30
2018-01-30T13:06:55.766Z,3.30
2018-01-30T13:09:23.215Z,3.20
2018-01-30T13:11:50.691Z,3.07
2018-01-30T13:14:18.155Z,3.80
2018-01-30T13:16:45.622Z,3.37
2018-01-30T13:19:13.104Z,3.30
2018-01-30T13:21:41.352Z,3.50
2018-01-30T13:24:08.820Z,3.47
2018-01-30T13:26:36.289Z,3.17
2018-01-30T13:29:03.776Z,3.03
2018-01-30T13:31:32.106Z,2.83
2018-01-30T13:33:59.581Z,3.53
2018-01-30T13:36:27.045Z,3.90
2018-01-30T13:38:54.516Z,3.43
2018-01-30T13:41:21.978Z,3.37
2018-01-30T13:43:49.450Z,3.60
2018-01-30T13:46:16.917Z,3.60
2018-01-30T13:48:44.403Z,3.10
2018-01-30T13:51:11.865Z,3.53
2018-01-30T13:53:39.341Z,3.40
2018-01-30T13:56:06.804Z,3.17
2018-01-30T13:58:34.276Z,2.77
2018-01-30T14:01:01.756Z,2.73
2018-01-30T14:03:29.235Z,2.70
2018-01-30T14:05:56.693Z,3.10
2018-01-30T14:08:24.152Z,3.40
2018-01-30T14:10:51.615Z,2.80
2018-01-30T14:13:19.083Z,2.63
2018-01-30T14:15:46.531Z,2.77
2018-01-30T14:18:13.991Z,2.60
2018-01-30T14:20:41.434Z,2.73
2018-01-30T14:23:08.899Z,2.67
2018-01-30T14:25:36.355Z,3.37
2018-01-30T14:28:03.818Z,2.90
2018-01-30T14:30:31.275Z,3.50
2018-01-30T14:32:58.748Z,3.20
2018-01-30T14:35:26.211Z,3.20
2018-01-30T14:37:53.688Z,3.03
2018-01-30T14:40:21.948Z,2.80
2018-01-30T14:42:49.439Z,2.90
2018-01-30T14:45:16.899Z,3.10
2018-01-30T14:47:44.352Z,2.73
2018-01-30T14:50:11.892Z,2.77
2018-01-30T14:52:39.337Z,3.03
2018-01-30T14:55:06.807Z,3.20
2018-01-30T14:57:34.263Z,3.77
2018-01-30T15:00:02.502Z,3.40
2018-01-30T15:02:29.965Z,3.47
2018-01-30T15:04:57.432Z,3.73
2018-01-30T15:10:15.523Z,3.70
2018-01-30T15:12:42.994Z,3.67
2018-01-30T15:15:10.448Z,3.60
2018-01-30T15:17:38.673Z,3.30
2018-01-30T15:20:06.146Z,3.93
2018-01-30T15:22:33.615Z,3.90
2018-01-30T15:25:01.091Z,3.70
2018-01-30T15:27:28.538Z,3.70
2018-01-30T15:29:56.019Z,3.20
2018-01-30T15:32:23.494Z,3.27
2018-01-30T15:34:51.721Z,3.60
2018-01-30T15:37:19.172Z,3.63
2018-01-30T15:39:46.649Z,3.60
2018-01-30T15:42:14.150Z,3.30
2018-01-30T15:44:41.599Z,4.17
2018-01-30T15:47:09.071Z,4.03
2018-01-30T15:49:36.521Z,4.60
2018-01-30T15:52:03.983Z,4.80
2018-01-30T15:54:31.444Z,4.93
2018-01-30T15:56:58.910Z,5.00
2018-01-30T15:59:26.371Z,4.87
2018-01-30T16:01:53.826Z,5.33
2018-01-30T16:04:21.317Z,5.33
2018-01-30T16:06:49.542Z,5.13
2018-01-30T16:09:17.005Z,5.77
2018-01-30T16:11:44.465Z,5.47
2018-01-30T16:14:11.936Z,4.70
2018-01-30T16:16:39.389Z,5.20
2018-01-30T16:19:06.848Z,4.90
2018-01-30T16:21:34.322Z,5.00
2018-01-30T16:24:01.779Z,5.03
2018-01-30T16:26:29.241Z,4.70
2018-01-30T16:28:56.719Z,5.60
2018-01-30T16:31:24.193Z,5.60
2018-01-30T16:33:51.653Z,5.73
2018-01-30T16:36:19.109Z,4.93
2018-01-30T16:38:46.570Z,5.60
2018-01-30T16:41:14.037Z,5.10
2018-01-30T16:43:41.493Z,4.90
2018-01-30T16:46:08.960Z,31.70
2018-01-30T16:48:36.427Z,42.97
2018-01-30T16:51:03.892Z,23.17
2018-01-30T16:53:31.358Z,27.93
2018-01-30T16:55:58.830Z,15.77
2018-01-30T16:58:27.255Z,43.20
2018-01-30T17:00:54.737Z,46.23
2018-01-30T17:03:22.189Z,32.47
2018-01-30T17:05:49.666Z,15.53
2018-01-30T17:08:17.140Z,13.83
2018-01-30T17:10:44.610Z,13.33
2018-01-30T17:13:12.065Z,15.03
2018-01-30T17:15:39.529Z,18.57
2018-01-30T17:18:06.997Z,17.43
2018-01-30T17:20:34.456Z,23.13
2018-01-30T17:23:01.930Z,20.90
2018-01-30T17:25:29.385Z,22.10
2018-01-30T17:27:56.907Z,21.07
2018-01-30T17:30:24.316Z,28.13
2018-01-30T17:32:51.791Z,34.57
2018-01-30T17:35:19.259Z,29.90
2018-01-30T17:37:46.759Z,23.40
2018-01-30T17:40:14.221Z,21.33
2018-01-30T17:42:41.687Z,21.00
2018-01-30T17:45:09.194Z,18.73
2018-01-30T17:47:36.651Z,17.37
2018-01-30T17:50:04.117Z,14.10
2018-01-30T17:52:31.572Z,12.80
2018-01-30T17:54:59.029Z,11.97
2018-01-30T17:57:26.494Z,12.00
2018-01-30T17:59:53.947Z,15.13
2018-01-30T18:02:21.405Z,12.23
2018-01-30T18:04:48.874Z,12.10
2018-01-30T18:07:16.338Z,12.00
2018-01-30T18:09:43.794Z,11.93
2018-01-30T18:12:11.263Z,12.57
2018-01-30T18:14:38.731Z,17.77
2018-01-30T18:17:06.236Z,24.80
2018-01-30T18:19:34.452Z,12.17
2018-01-30T18:22:01.938Z,15.83
2018-01-30T18:24:29.372Z,8.90
2018-01-30T18:26:56.839Z,10.50
2018-01-30T18:29:24.290Z,11.57
2018-01-30T18:31:51.755Z,9.37
2018-01-30T18:34:19.221Z,13.90
2018-01-30T18:36:46.686Z,20.40
2018-01-30T18:39:14.144Z,15.90
2018-01-30T18:41:41.610Z,12.27
2018-01-30T18:44:09.093Z,11.63
2018-01-30T18:46:36.564Z,14.77
2018-01-30T18:49:04.012Z,18.53
2018-01-30T18:51:31.476Z,17.43
2018-01-30T18:53:58.936Z,15.83
2018-01-30T18:56:26.393Z,18.57
2018-01-30T18:58:53.916Z,18.13
2018-01-30T19:01:22.177Z,32.70
2018-01-30T19:03:49.640Z,33.53
2018-01-30T19:06:17.868Z,28.87
2018-01-30T19:08:45.337Z,19.60
2018-01-30T19:11:12.792Z,15.30
2018-01-30T19:13:40.249Z,11.43
2018-01-30T19:16:07.718Z,10.17
2018-01-30T19:18:39.309Z,9.30
2018-01-30T19:21:06.751Z,10.23
2018-01-30T19:23:34.213Z,10.43
2018-01-30T19:26:01.685Z,10.17
2018-01-30T19:28:29.208Z,10.70
2018-01-30T19:30:56.656Z,10.90
2018-01-30T19:33:24.881Z,10.47
2018-01-30T19:35:52.390Z,11.60
2018-01-30T19:38:19.897Z,9.37
2018-01-30T19:40:47.361Z,9.33
2018-01-30T19:43:14.809Z,8.57
2018-01-30T19:45:42.312Z,7.93
2018-01-30T19:48:09.759Z,7.50
2018-01-30T19:50:37.270Z,7.03
2018-01-30T19:53:04.720Z,6.90
2018-01-30T19:55:32.240Z,6.43
2018-01-30T19:57:59.728Z,7.20
2018-01-30T20:00:27.246Z,8.53
2018-01-30T20:02:54.694Z,8.63
2018-01-30T20:05:23.956Z,7.63
2018-01-30T20:07:51.676Z,7.77
2018-01-30T20:10:19.138Z,7.10
2018-01-30T20:12:46.640Z,7.53
2018-01-30T20:15:14.093Z,6.93
2018-01-30T20:17:41.619Z,7.27
2018-01-30T20:20:09.890Z,7.60
2018-01-30T20:22:38.204Z,8.00
2018-01-30T20:25:05.711Z,8.40
2018-01-30T20:27:33.208Z,9.70
2018-01-30T20:30:01.503Z,9.93
2018-01-30T20:32:29.013Z,9.13
2018-01-30T20:34:56.551Z,9.50
2018-01-30T20:37:23.994Z,10.53
2018-01-30T20:39:51.468Z,10.13
2018-01-30T20:42:18.923Z,11.33
2018-01-30T20:44:46.386Z,11.00
2018-01-30T20:47:13.895Z,18.40
2018-01-30T20:49:41.346Z,13.83
2018-01-30T20:52:08.890Z,11.87
2018-01-30T20:54:36.353Z,11.73
2018-01-30T20:57:03.861Z,11.87
2018-01-30T20:59:32.089Z,11.40
2018-01-30T21:01:59.586Z,11.40
2018-01-30T21:04:27.050Z,11.83
2018-01-30T21:06:54.560Z,11.63
2018-01-30T21:09:22.013Z,10.63
2018-01-30T21:11:49.538Z,11.07
2018-01-30T21:14:16.981Z,11.03
2018-01-30T21:16:44.455Z,10.43
2018-01-30T21:19:18.673Z,10.63
2018-01-30T21:21:57.680Z,10.70
2018-01-30T21:24:25.144Z,10.03
2018-01-30T21:26:53.646Z,10.10
2018-01-30T21:29:21.150Z,10.33
2018-01-30T21:31:49.411Z,10.37
2018-01-30T21:34:16.867Z,9.80
2018-01-30T21:36:44.394Z,9.97
2018-01-30T21:39:12.643Z,10.10
2018-01-30T21:41:40.100Z,10.43
2018-01-30T21:44:08.314Z,10.30
2018-01-30T21:46:35.779Z,9.40
2018-01-30T21:49:10.251Z,10.63
2018-01-30T21:51:38.522Z,10.40
2018-01-30T21:54:05.961Z,10.47
2018-01-30T21:56:33.432Z,10.67
2018-01-30T21:59:00.887Z,11.17
2018-01-30T22:01:28.418Z,10.80
2018-01-30T22:03:55.861Z,10.80
2018-01-30T22:06:23.329Z,10.10
2018-01-30T22:08:50.791Z,10.80
2018-01-30T22:11:18.311Z,10.30
2018-01-30T22:13:45.792Z,11.57
2018-01-30T22:16:13.337Z,11.43
2018-01-30T22:18:40.832Z,11.00
2018-01-30T22:21:09.070Z,11.17
2018-01-30T22:23:36.521Z,10.60
2018-01-30T22:26:03.985Z,10.17
2018-01-30T22:28:31.449Z,10.53
2018-01-30T22:30:58.908Z,10.90
2018-01-30T22:33:26.376Z,10.37
2018-01-30T22:35:53.824Z,10.10
2018-01-30T22:38:21.300Z,10.13
2018-01-30T22:40:48.752Z,9.43
2018-01-30T22:43:16.260Z,8.50
2018-01-30T22:45:43.694Z,8.53
